KMLB/MLB METAR and TAF weather

Enter ICAO airport designator
Station Type Date Time Source
KMLB METAR 2019/06/18 05:00 UTC NOAA

KMLB 180500Z AUTO 17010KT 10SM FEW014 BKN060 24/22 A3006 RMK AO2 T02440222


Station Type Date Time Source
KMLB Decoded METAR 2019/06/18 05:00 UTC NOAA

MELBOURNE INTERNATIONAL, FL, United States (KMLB) 28-06N 080-39W 10M
Jun 18, 2019 - 01:00 AM EDT / 2019.06.18 0500 UTC
Wind: from the S (170 degrees) at 12 MPH (10 KT):0
Visibility: 10 mile(s):0
Sky conditions: mostly cloudy
Temperature: 75.9 F (24.4 C)
Dew Point: 72.0 F (22.2 C)
Relative Humidity: 87%
Pressure (altimeter): 30.06 in. Hg (1017 hPa)
ob: KMLB 180500Z AUTO 17010KT 10SM FEW014 BKN060 24/22 A3006 RMK AO2 T02440222
cycle: 5

Station Type Date Time Source
KMLB TAF 2019/06/17 18:36 UTC NOAA

TAF KMLB 171732Z 1718/1818 13011G19KT P6SM VCSH SCT025 BKN100
FM180000 18005KT P6SM SCT025 BKN100
FM181400 21011KT P6SM SCT020 SCT070 BKN250

Example: see airport list